createdAt,value
2018-06-12T00:01:03.906Z,5.57
2018-06-12T00:03:32.423Z,6.13
2018-06-12T00:06:01.975Z,4.43
2018-06-12T00:08:30.490Z,4.77
2018-06-12T00:10:59.018Z,5.53
2018-06-12T00:13:27.555Z,5.00
2018-06-12T00:15:57.084Z,5.50
2018-06-12T00:18:25.679Z,5.30
2018-06-12T00:20:54.199Z,5.27
2018-06-12T00:23:22.734Z,4.83
2018-06-12T00:25:51.286Z,6.00
2018-06-12T00:28:19.827Z,4.90
2018-06-12T00:30:48.351Z,5.50
2018-06-12T00:33:16.870Z,5.20
2018-06-12T00:35:45.414Z,4.77
2018-06-12T00:38:13.962Z,5.17
2018-06-12T00:40:42.490Z,5.13
2018-06-12T00:43:11.050Z,5.67
2018-06-12T00:45:39.583Z,5.93
2018-06-12T00:48:10.149Z,5.23
2018-06-12T00:50:38.674Z,5.40
2018-06-12T00:53:07.235Z,4.77
2018-06-12T00:55:35.785Z,4.50
2018-06-12T00:58:04.503Z,5.20
2018-06-12T01:00:34.059Z,5.30
2018-06-12T01:03:02.612Z,5.40
2018-06-12T01:05:30.819Z,5.57
2018-06-12T01:07:59.330Z,5.93
2018-06-12T01:10:27.870Z,6.00
2018-06-12T01:12:56.400Z,5.37
2018-06-12T01:15:24.947Z,6.57
2018-06-12T01:17:54.472Z,4.87
2018-06-12T01:20:23.011Z,5.37
2018-06-12T01:22:51.551Z,4.97
2018-06-12T01:25:20.071Z,6.07
2018-06-12T01:27:48.603Z,4.83
2018-06-12T01:30:17.163Z,5.70
2018-06-12T01:32:45.735Z,5.27
2018-06-12T01:35:14.270Z,5.60
2018-06-12T01:37:42.808Z,5.80
2018-06-12T01:40:11.360Z,5.70
2018-06-12T01:42:39.944Z,5.10
2018-06-12T01:45:08.490Z,6.27
2018-06-12T01:47:37.046Z,5.47
2018-06-12T01:50:05.619Z,4.73
2018-06-12T01:52:34.163Z,5.47
2018-06-12T01:55:02.722Z,5.10
2018-06-12T01:57:31.298Z,4.63
2018-06-12T01:59:59.844Z,5.10
2018-06-12T02:02:28.378Z,5.43
2018-06-12T02:04:56.569Z,5.60
2018-06-12T02:07:25.099Z,5.33
2018-06-12T02:09:53.616Z,5.23
2018-06-12T02:12:22.206Z,5.70
2018-06-12T02:14:50.732Z,6.20
2018-06-12T02:17:19.242Z,5.10
2018-06-12T02:19:47.766Z,5.70
2018-06-12T02:22:16.296Z,6.40
2018-06-12T02:24:44.802Z,4.93
2018-06-12T02:27:13.339Z,5.13
2018-06-12T02:29:41.878Z,5.47
2018-06-12T02:32:10.399Z,5.50
2018-06-12T02:34:38.906Z,6.67
2018-06-12T02:37:07.431Z,6.13
2018-06-12T02:39:35.955Z,6.03
2018-06-12T02:42:04.516Z,5.70
2018-06-12T02:44:34.137Z,5.57
2018-06-12T02:47:02.615Z,5.73
2018-06-12T02:49:31.163Z,6.40
2018-06-12T02:51:59.712Z,6.83
2018-06-12T02:54:28.231Z,7.33
2018-06-12T02:56:58.792Z,6.10
2018-06-12T02:59:27.419Z,5.60
2018-06-12T03:02:00.519Z,6.60
2018-06-12T03:04:29.270Z,7.40
2018-06-12T03:06:57.811Z,6.90
2018-06-12T03:09:26.427Z,6.70
2018-06-12T03:11:54.948Z,7.07
2018-06-12T03:14:23.514Z,7.43
2018-06-12T03:16:52.045Z,6.90
2018-06-12T03:19:20.575Z,7.97
2018-06-12T03:21:49.129Z,7.83
2018-06-12T03:24:17.684Z,7.83
2018-06-12T03:26:46.219Z,7.00
2018-06-12T03:29:14.832Z,8.13
2018-06-12T03:31:43.354Z,7.70
2018-06-12T03:34:11.914Z,6.87
2018-06-12T03:36:40.451Z,6.23
2018-06-12T03:39:08.982Z,7.03
2018-06-12T03:41:37.506Z,6.00
2018-06-12T03:44:06.035Z,6.67
2018-06-12T03:46:34.555Z,6.03
2018-06-12T03:49:03.090Z,6.70
2018-06-12T03:51:31.682Z,6.53
2018-06-12T03:54:00.202Z,7.03
2018-06-12T03:56:28.397Z,6.40
2018-06-12T03:58:56.929Z,7.20
2018-06-12T04:01:25.460Z,6.07
2018-06-12T04:03:53.988Z,6.47
2018-06-12T04:06:22.522Z,6.10
2018-06-12T04:08:51.071Z,6.23
2018-06-12T04:11:19.583Z,5.60
2018-06-12T04:13:48.175Z,5.47
2018-06-12T04:16:16.742Z,4.83
2018-06-12T04:18:45.286Z,5.20
2018-06-12T04:21:13.799Z,4.60
2018-06-12T04:23:42.331Z,5.00
2018-06-12T04:26:11.202Z,5.13
2018-06-12T04:28:39.698Z,5.30
2018-06-12T04:31:08.239Z,4.97
2018-06-12T04:33:36.762Z,4.30
2018-06-12T04:36:06.319Z,3.87
2018-06-12T04:38:34.920Z,4.27
2018-06-12T04:41:03.467Z,5.20
2018-06-12T04:43:32.010Z,4.83
2018-06-12T04:46:00.535Z,4.57
2018-06-12T04:48:29.046Z,3.90
2018-06-12T04:50:57.574Z,4.47
2018-06-12T04:53:26.100Z,4.17
2018-06-12T04:55:54.640Z,4.37
2018-06-12T04:58:23.170Z,4.20
2018-06-12T05:00:51.702Z,4.03
2018-06-12T05:03:20.233Z,4.00
2018-06-12T05:05:48.742Z,3.90
2018-06-12T05:08:17.251Z,4.03
2018-06-12T05:10:45.758Z,3.63
2018-06-12T05:13:14.282Z,4.03
2018-06-12T05:15:42.819Z,3.97
2018-06-12T05:18:12.471Z,3.77
2018-06-12T05:20:41.010Z,3.90
2018-06-12T05:23:09.588Z,3.30
2018-06-12T05:25:38.254Z,4.37
2018-06-12T05:28:08.233Z,3.60
2018-06-12T05:30:36.920Z,3.37
2018-06-12T05:33:05.450Z,4.13
2018-06-12T05:35:33.955Z,3.73
2018-06-12T05:38:03.079Z,4.50
2018-06-12T05:40:32.593Z,4.13
2018-06-12T05:43:02.249Z,2.90
2018-06-12T05:45:32.082Z,4.70
2018-06-12T05:48:01.718Z,5.70
2018-06-12T05:50:31.445Z,12.30
2018-06-12T05:53:02.905Z,27.33
2018-06-12T05:55:33.543Z,14.20
2018-06-12T05:58:03.063Z,12.87
2018-06-12T06:00:32.596Z,12.73
2018-06-12T06:03:02.279Z,12.90
2018-06-12T06:05:31.999Z,13.77
2018-06-12T06:08:01.933Z,18.37
2018-06-12T06:10:31.548Z,20.80
2018-06-12T06:13:02.112Z,18.70
2018-06-12T06:15:31.727Z,19.67
2018-06-12T06:18:01.153Z,19.80
2018-06-12T06:20:31.365Z,23.57
2018-06-12T06:23:01.981Z,21.10
2018-06-12T06:25:31.432Z,21.87
2018-06-12T06:28:00.965Z,19.37
2018-06-12T06:30:30.321Z,17.17
2018-06-12T06:32:59.653Z,18.00
2018-06-12T06:35:29.299Z,16.20
2018-06-12T06:37:58.598Z,19.23
2018-06-12T06:40:28.449Z,17.03
2018-06-12T06:42:57.069Z,17.17
2018-06-12T06:45:26.677Z,17.07
2018-06-12T06:47:55.263Z,15.37
2018-06-12T06:50:23.465Z,15.67
2018-06-12T06:52:52.026Z,15.40
2018-06-12T06:55:20.551Z,14.77
2018-06-12T06:57:49.078Z,15.63
2018-06-12T07:00:17.283Z,14.50
2018-06-12T07:02:45.834Z,16.60
2018-06-12T07:05:14.368Z,12.53
2018-06-12T07:07:42.890Z,14.13
2018-06-12T07:10:11.400Z,12.60
2018-06-12T07:12:39.943Z,14.00
2018-06-12T07:15:08.183Z,11.90
2018-06-12T07:17:36.729Z,13.17
2018-06-12T07:20:05.298Z,13.03
2018-06-12T07:22:33.823Z,12.30
2018-06-12T07:25:08.847Z,11.00
2018-06-12T07:27:37.362Z,12.23
2018-06-12T07:30:05.914Z,9.90
2018-06-12T07:32:34.497Z,12.47
2018-06-12T07:35:03.032Z,10.00
2018-06-12T07:37:31.292Z,12.03
2018-06-12T07:39:59.760Z,11.80
2018-06-12T07:42:29.299Z,10.53
2018-06-12T07:44:57.822Z,10.40
2018-06-12T07:47:26.355Z,9.70
2018-06-12T07:49:54.871Z,9.10
2018-06-12T07:52:23.447Z,10.57
2018-06-12T07:54:53.152Z,10.30
2018-06-12T07:57:21.692Z,9.53
2018-06-12T07:59:50.203Z,9.83
2018-06-12T08:02:18.714Z,9.37
2018-06-12T08:04:47.218Z,10.33
2018-06-12T08:07:15.766Z,10.83
2018-06-12T08:09:44.299Z,9.40
2018-06-12T08:12:12.843Z,10.00
2018-06-12T08:14:41.362Z,9.00
2018-06-12T08:17:09.550Z,8.33
2018-06-12T08:19:38.122Z,8.47
2018-06-12T08:22:06.702Z,9.03
2018-06-12T08:24:35.231Z,9.53
2018-06-12T08:27:03.764Z,8.30
2018-06-12T08:29:32.284Z,8.10
2018-06-12T08:32:00.830Z,8.57
2018-06-12T08:34:29.048Z,7.83
2018-06-12T08:36:57.562Z,8.80
2018-06-12T08:39:25.767Z,8.40
2018-06-12T08:41:54.346Z,8.50
2018-06-12T08:44:23.545Z,7.97
2018-06-12T08:46:52.097Z,7.80
2018-06-12T08:49:20.628Z,8.67
2018-06-12T08:51:49.175Z,8.20
2018-06-12T08:54:18.756Z,8.53
2018-06-12T08:56:47.298Z,8.27
2018-06-12T08:59:15.854Z,8.40
2018-06-12T09:01:44.379Z,7.77
2018-06-12T09:04:12.910Z,7.50
2018-06-12T09:06:41.446Z,7.47
2018-06-12T09:09:10.024Z,8.10
2018-06-12T09:11:38.550Z,7.00
2018-06-12T09:14:08.072Z,7.00
2018-06-12T09:16:36.582Z,7.60
2018-06-12T09:19:06.222Z,6.20
2018-06-12T09:21:34.790Z,8.43
2018-06-12T09:24:03.318Z,7.20
2018-06-12T09:26:32.061Z,7.93
2018-06-12T09:29:00.683Z,7.17
2018-06-12T09:31:29.211Z,6.43
2018-06-12T09:33:57.734Z,7.73
2018-06-12T09:36:31.685Z,7.77
2018-06-12T09:39:00.308Z,6.33
2018-06-12T09:41:28.850Z,6.50
2018-06-12T09:43:57.367Z,7.47
2018-06-12T09:46:25.878Z,6.80
2018-06-12T09:48:54.418Z,6.30
2018-06-12T09:51:22.935Z,7.70
2018-06-12T09:53:51.118Z,7.40
2018-06-12T09:56:19.683Z,7.20
2018-06-12T09:58:48.235Z,5.97
2018-06-12T10:01:19.474Z,7.13
2018-06-12T10:03:49.438Z,7.07
2018-06-12T10:06:17.988Z,7.50
2018-06-12T10:08:46.528Z,7.77
2018-06-12T10:11:15.139Z,7.17
2018-06-12T10:13:43.687Z,7.80
2018-06-12T10:16:12.233Z,6.93
2018-06-12T10:18:40.765Z,6.73
2018-06-12T10:21:09.320Z,6.30
2018-06-12T10:23:37.830Z,7.10
2018-06-12T10:26:06.371Z,6.00
2018-06-12T10:28:34.920Z,6.20
2018-06-12T10:31:03.453Z,6.77
2018-06-12T10:33:31.986Z,6.33
2018-06-12T10:36:00.515Z,6.50
2018-06-12T10:38:29.026Z,6.60
2018-06-12T10:40:57.602Z,6.87
2018-06-12T10:43:26.142Z,6.33
2018-06-12T10:45:54.670Z,5.90
2018-06-12T10:48:23.238Z,6.80
2018-06-12T10:50:51.758Z,5.97
2018-06-12T10:53:20.284Z,6.00
2018-06-12T10:55:48.823Z,6.50
2018-06-12T10:58:17.428Z,7.37
2018-06-12T11:00:45.954Z,6.97
2018-06-12T11:03:14.515Z,5.80
2018-06-12T11:05:43.058Z,5.97
2018-06-12T11:08:11.584Z,6.87
2018-06-12T11:10:40.135Z,6.30
2018-06-12T11:13:08.759Z,5.57
2018-06-12T11:15:37.291Z,7.23
2018-06-12T11:18:05.858Z,6.10
2018-06-12T11:20:34.420Z,6.70
2018-06-12T11:23:03.002Z,5.40
2018-06-12T11:25:31.534Z,5.50
2018-06-12T11:28:00.040Z,6.27
2018-06-12T11:30:28.568Z,5.73
2018-06-12T11:32:58.146Z,6.50
2018-06-12T11:35:26.674Z,5.53
2018-06-12T11:37:55.207Z,5.83
2018-06-12T11:40:23.734Z,5.53
2018-06-12T11:42:51.941Z,5.50
2018-06-12T11:45:20.470Z,5.63
2018-06-12T11:47:48.665Z,6.00
2018-06-12T11:50:17.187Z,5.57
2018-06-12T11:52:45.709Z,5.50
2018-06-12T11:55:13.906Z,5.20
2018-06-12T11:57:42.426Z,6.00
2018-06-12T12:00:11.059Z,5.60
2018-06-12T12:02:39.573Z,6.07
2018-06-12T12:05:08.114Z,5.30
2018-06-12T12:07:36.318Z,5.70
2018-06-12T12:10:05.163Z,5.47
2018-06-12T12:12:33.686Z,5.77
2018-06-12T12:15:02.208Z,5.20
2018-06-12T12:17:31.752Z,5.47
2018-06-12T12:20:00.300Z,5.00
2018-06-12T12:22:28.859Z,5.83
2018-06-12T12:24:57.403Z,4.90
2018-06-12T12:27:26.056Z,5.17
2018-06-12T12:29:55.595Z,5.03
2018-06-12T12:32:24.111Z,5.50
2018-06-12T12:34:52.623Z,5.57
2018-06-12T12:37:20.801Z,6.07
2018-06-12T12:39:48.986Z,5.50
2018-06-12T12:42:17.514Z,5.33
2018-06-12T12:44:46.047Z,5.73
2018-06-12T12:47:14.746Z,5.17
2018-06-12T12:49:43.276Z,5.13
2018-06-12T12:52:11.855Z,5.00
2018-06-12T12:54:40.387Z,4.67
2018-06-12T12:57:08.946Z,5.40
2018-06-12T12:59:37.479Z,5.07
2018-06-12T13:02:06.005Z,5.60
2018-06-12T13:04:34.543Z,5.37
2018-06-12T13:07:04.097Z,4.10
2018-06-12T13:09:32.336Z,4.40
2018-06-12T13:12:00.864Z,3.90
2018-06-12T13:14:29.382Z,5.67
2018-06-12T13:16:58.942Z,4.57
2018-06-12T13:19:27.477Z,5.70
2018-06-12T13:21:56.011Z,5.97
2018-06-12T13:24:24.607Z,4.87
2018-06-12T13:26:53.156Z,4.70
2018-06-12T13:29:21.347Z,4.60
2018-06-12T13:31:49.874Z,4.87
2018-06-12T13:34:18.462Z,5.33
2018-06-12T13:36:46.972Z,5.20
2018-06-12T13:39:15.506Z,4.60
2018-06-12T13:41:44.069Z,5.00
2018-06-12T13:44:12.598Z,5.10
2018-06-12T13:46:41.164Z,4.37
2018-06-12T13:49:10.703Z,4.63
2018-06-12T13:51:38.898Z,4.70
2018-06-12T13:54:11.358Z,4.83
2018-06-12T13:56:39.890Z,4.07
2018-06-12T13:59:08.439Z,4.40
2018-06-12T14:01:36.971Z,5.07
2018-06-12T14:04:06.562Z,5.40
2018-06-12T14:06:35.078Z,4.67
2018-06-12T14:09:04.591Z,5.37
2018-06-12T14:11:32.927Z,4.23
2018-06-12T14:14:01.481Z,4.57
2018-06-12T14:16:30.024Z,4.90
2018-06-12T14:18:58.571Z,4.33
2018-06-12T14:21:27.964Z,4.20
2018-06-12T14:23:56.494Z,4.80
2018-06-12T14:26:25.047Z,4.60
2018-06-12T14:28:53.566Z,4.50
2018-06-12T14:31:22.153Z,4.60
2018-06-12T14:33:50.734Z,4.20
2018-06-12T14:36:19.243Z,4.60
2018-06-12T14:38:47.766Z,4.27
2018-06-12T14:41:16.289Z,4.83
2018-06-12T14:43:44.807Z,4.47
2018-06-12T14:46:13.322Z,4.47
2018-06-12T14:48:41.510Z,5.03
2018-06-12T14:51:10.048Z,3.90
2018-06-12T14:53:38.603Z,4.63
2018-06-12T14:56:07.210Z,5.10
2018-06-12T14:58:35.755Z,4.20
2018-06-12T15:01:04.311Z,5.03
2018-06-12T15:03:32.827Z,4.70
2018-06-12T15:06:01.395Z,4.70
2018-06-12T15:08:29.929Z,4.40
2018-06-12T15:10:58.452Z,3.90
2018-06-12T15:13:27.083Z,4.10
2018-06-12T15:15:55.594Z,4.77
2018-06-12T15:18:24.123Z,4.57
2018-06-12T15:20:52.662Z,4.50
2018-06-12T15:23:21.193Z,4.30
2018-06-12T15:25:50.757Z,4.50
2018-06-12T15:28:19.287Z,3.73
2018-06-12T15:30:47.831Z,3.67
2018-06-12T15:33:16.377Z,5.00
2018-06-12T15:35:44.907Z,4.00
2018-06-12T15:38:13.436Z,3.90
2018-06-12T15:40:41.646Z,4.00
2018-06-12T15:43:10.174Z,3.90
2018-06-12T15:45:38.742Z,5.67
2018-06-12T15:48:07.290Z,4.73
2018-06-12T15:50:36.001Z,4.10
2018-06-12T15:53:04.194Z,5.03
2018-06-12T15:55:33.795Z,4.10
2018-06-12T15:58:02.322Z,4.57
2018-06-12T16:00:30.915Z,4.30
2018-06-12T16:02:59.468Z,4.70
2018-06-12T16:05:27.657Z,4.23
2018-06-12T16:07:56.209Z,4.50
2018-06-12T16:10:24.754Z,4.13
2018-06-12T16:12:53.335Z,4.67
2018-06-12T16:15:21.847Z,4.47
2018-06-12T16:17:50.379Z,4.30
2018-06-12T16:20:18.907Z,4.37
2018-06-12T16:22:47.424Z,3.80
2018-06-12T16:25:15.942Z,4.60
2018-06-12T16:27:44.492Z,4.17
2018-06-12T16:30:13.043Z,3.90
2018-06-12T16:32:41.603Z,4.43
2018-06-12T16:35:10.263Z,4.73
2018-06-12T16:37:38.814Z,4.30
2018-06-12T16:40:07.372Z,4.10
2018-06-12T16:42:35.964Z,4.40
2018-06-12T16:45:04.583Z,4.07
2018-06-12T16:47:33.119Z,3.70
2018-06-12T16:50:02.357Z,3.77
2018-06-12T16:52:30.907Z,3.30
2018-06-12T16:54:59.455Z,4.23
2018-06-12T16:57:27.996Z,4.07
2018-06-12T16:59:56.570Z,4.90
2018-06-12T17:02:25.115Z,4.40
2018-06-12T17:04:53.622Z,3.60
2018-06-12T17:07:22.163Z,4.17
2018-06-12T17:09:50.676Z,4.20
2018-06-12T17:12:19.214Z,3.93
2018-06-12T17:14:47.778Z,4.57
2018-06-12T17:17:16.332Z,4.20
2018-06-12T17:19:44.883Z,4.53
2018-06-12T17:22:13.426Z,3.83
2018-06-12T17:24:42.988Z,4.20
2018-06-12T17:27:11.169Z,4.20
2018-06-12T17:29:39.746Z,4.60
2018-06-12T17:32:08.297Z,3.67
2018-06-12T17:34:36.831Z,3.90
2018-06-12T17:37:05.445Z,4.10
2018-06-12T17:39:33.988Z,4.00
2018-06-12T17:42:02.526Z,4.27
2018-06-12T17:44:31.050Z,3.77
2018-06-12T17:47:00.600Z,3.97
2018-06-12T17:49:29.127Z,3.77
2018-06-12T17:51:57.642Z,3.70
2018-06-12T17:54:26.163Z,4.00
2018-06-12T17:56:54.695Z,3.60
2018-06-12T17:59:23.227Z,4.27
2018-06-12T18:01:52.419Z,3.50
2018-06-12T18:04:20.986Z,3.00
2018-06-12T18:06:49.535Z,3.37
2018-06-12T18:09:19.077Z,4.20
2018-06-12T18:11:47.622Z,3.30
2018-06-12T18:14:16.126Z,4.00
2018-06-12T18:16:44.660Z,4.00
2018-06-12T18:19:13.233Z,3.50
2018-06-12T18:21:43.453Z,3.90
2018-06-12T18:24:11.999Z,3.97
2018-06-12T18:26:41.583Z,3.80
2018-06-12T18:29:10.118Z,3.37
2018-06-12T18:31:38.682Z,3.77
2018-06-12T18:34:07.228Z,3.90
2018-06-12T18:36:35.807Z,3.90
2018-06-12T18:39:06.003Z,4.10
2018-06-12T18:41:34.546Z,3.97
2018-06-12T18:44:03.395Z,3.53
2018-06-12T18:46:31.943Z,3.30
2018-06-12T18:49:00.485Z,3.77
2018-06-12T18:51:29.039Z,3.20
2018-06-12T18:53:57.571Z,3.97
2018-06-12T18:56:27.102Z,3.77
2018-06-12T18:58:55.622Z,3.73
2018-06-12T19:01:24.189Z,3.40
2018-06-12T19:03:52.686Z,3.50
2018-06-12T19:06:21.242Z,3.37
2018-06-12T19:08:49.797Z,3.10
2018-06-12T19:11:18.314Z,3.90
2018-06-12T19:13:46.862Z,3.40
2018-06-12T19:16:15.402Z,3.37
2018-06-12T19:18:43.995Z,3.60
2018-06-12T19:21:12.519Z,2.90
2018-06-12T19:23:42.107Z,3.13
2018-06-12T19:26:12.701Z,3.23
2018-06-12T19:28:41.235Z,3.50
2018-06-12T19:31:09.795Z,2.90
2018-06-12T19:33:38.311Z,2.67
2018-06-12T19:36:07.839Z,3.57
2018-06-12T19:38:36.420Z,2.90
2018-06-12T19:41:04.946Z,2.93
2018-06-12T19:43:33.554Z,2.93
2018-06-12T19:46:02.071Z,3.13
2018-06-12T19:48:32.728Z,2.90
2018-06-12T19:51:00.924Z,3.30
2018-06-12T19:53:29.714Z,2.50
2018-06-12T19:55:58.334Z,3.43
2018-06-12T19:58:27.878Z,3.27
2018-06-12T20:00:56.468Z,3.40
2018-06-12T20:03:24.659Z,2.37
2018-06-12T20:05:53.184Z,3.30
2018-06-12T20:08:21.695Z,2.63
2018-06-12T20:10:51.183Z,3.47
2018-06-12T20:13:19.704Z,2.70
2018-06-12T20:15:48.236Z,2.90
2018-06-12T20:18:16.790Z,3.90
2018-06-12T20:20:45.311Z,3.17
2018-06-12T20:23:13.836Z,2.80
2018-06-12T20:25:42.388Z,2.63
2018-06-12T20:28:10.574Z,2.57
2018-06-12T20:30:39.124Z,3.37
2018-06-12T20:33:07.661Z,3.40
2018-06-12T20:35:36.183Z,3.00
2018-06-12T20:38:04.915Z,2.97
2018-06-12T20:40:33.451Z,3.17
2018-06-12T20:43:01.971Z,3.23
2018-06-12T20:45:30.522Z,2.93
2018-06-12T20:47:59.153Z,3.77
2018-06-12T20:50:27.674Z,3.33
2018-06-12T20:52:56.240Z,2.90
2018-06-12T20:55:24.754Z,3.00
2018-06-12T20:57:53.353Z,3.07
2018-06-12T21:00:21.863Z,3.10
2018-06-12T21:02:50.395Z,3.03
2018-06-12T21:05:18.907Z,3.17
2018-06-12T21:07:47.527Z,3.03
2018-06-12T21:10:16.112Z,3.20
2018-06-12T21:12:44.679Z,2.70
2018-06-12T21:15:13.203Z,3.03
2018-06-12T21:17:41.734Z,3.80
2018-06-12T21:20:11.286Z,2.70
2018-06-12T21:22:39.795Z,2.87
2018-06-12T21:25:09.400Z,3.03
2018-06-12T21:27:37.946Z,2.97
2018-06-12T21:30:07.479Z,2.93
2018-06-12T21:32:36.006Z,3.63
2018-06-12T21:35:04.554Z,2.47
2018-06-12T21:37:33.081Z,2.93
2018-06-12T21:40:01.583Z,3.00
2018-06-12T21:42:30.135Z,3.83
2018-06-12T21:44:58.665Z,3.00
2018-06-12T21:47:27.195Z,3.37
2018-06-12T21:49:58.729Z,3.00
2018-06-12T21:52:27.249Z,3.10
2018-06-12T21:54:55.838Z,3.10
2018-06-12T21:57:24.550Z,2.67
2018-06-12T21:59:53.101Z,3.40
2018-06-12T22:02:21.646Z,3.10
2018-06-12T22:04:50.238Z,3.07
2018-06-12T22:07:19.755Z,3.20
2018-06-12T22:09:48.355Z,3.20
2018-06-12T22:12:16.911Z,3.30
2018-06-12T22:14:45.440Z,3.20
2018-06-12T22:17:13.958Z,2.60
2018-06-12T22:19:42.479Z,3.07
2018-06-12T22:22:10.998Z,3.07
2018-06-12T22:24:39.524Z,3.63
2018-06-12T22:27:08.083Z,2.80
2018-06-12T22:29:36.672Z,3.30
2018-06-12T22:32:06.315Z,3.10
2018-06-12T22:34:34.507Z,3.67
2018-06-12T22:37:03.052Z,2.87
2018-06-12T22:39:31.567Z,2.53
2018-06-12T22:42:00.194Z,2.80
2018-06-12T22:44:28.710Z,2.73
2018-06-12T22:46:57.229Z,2.90
2018-06-12T22:49:25.746Z,2.90
2018-06-12T22:51:55.262Z,2.80
2018-06-12T22:54:23.758Z,2.47
2018-06-12T22:56:52.272Z,2.67
2018-06-12T22:59:20.811Z,3.10
2018-06-12T23:01:49.338Z,2.97
2018-06-12T23:04:17.864Z,2.87
2018-06-12T23:06:47.406Z,2.90
2018-06-12T23:09:15.919Z,3.10
2018-06-12T23:11:44.423Z,3.20
2018-06-12T23:14:12.966Z,3.03
2018-06-12T23:16:41.573Z,2.70
2018-06-12T23:19:11.063Z,2.53
2018-06-12T23:21:50.763Z,3.33
2018-06-12T23:24:18.958Z,2.70
2018-06-12T23:26:47.477Z,2.63
2018-06-12T23:29:15.994Z,2.80
2018-06-12T23:31:44.526Z,2.73
2018-06-12T23:34:13.040Z,3.20
2018-06-12T23:36:41.561Z,2.30
2018-06-12T23:39:10.112Z,2.60
2018-06-12T23:41:39.684Z,2.60
2018-06-12T23:44:08.234Z,3.07
2018-06-12T23:46:36.772Z,2.83
2018-06-12T23:49:05.491Z,3.20
2018-06-12T23:51:34.058Z,2.90
2018-06-12T23:54:02.590Z,3.03
2018-06-12T23:56:31.146Z,3.30
2018-06-12T23:58:59.714Z,3.40
